createdAt,value
2017-03-31T00:00:12.525Z,10.46
2017-03-31T00:01:12.567Z,10.41
2017-03-31T00:02:12.579Z,10.52
2017-03-31T00:03:12.614Z,10.39
2017-03-31T00:04:12.657Z,10.47
2017-03-31T00:05:12.678Z,10.38
2017-03-31T00:06:12.736Z,10.41
2017-03-31T00:07:12.754Z,10.29
2017-03-31T00:08:12.777Z,10.29
2017-03-31T00:09:12.819Z,10.35
2017-03-31T00:10:12.844Z,10.31
2017-03-31T00:11:12.881Z,10.35
2017-03-31T00:12:12.909Z,10.32
2017-03-31T00:13:12.936Z,10.35
2017-03-31T00:14:12.957Z,10.35
2017-03-31T00:15:13.003Z,10.36
2017-03-31T00:16:13.007Z,10.33
2017-03-31T00:17:13.055Z,10.33
2017-03-31T00:18:13.105Z,10.38
2017-03-31T00:19:13.133Z,10.33
2017-03-31T00:20:13.145Z,10.31
2017-03-31T00:21:13.179Z,10.35
2017-03-31T00:22:13.231Z,10.32
2017-03-31T00:23:13.264Z,10.29
2017-03-31T00:24:13.265Z,10.23
2017-03-31T00:25:13.315Z,10.29
2017-03-31T00:26:13.357Z,10.17
2017-03-31T00:27:13.383Z,10.14
2017-03-31T00:28:13.401Z,10.1
2017-03-31T00:29:13.428Z,10.11
2017-03-31T00:30:13.512Z,10.1
2017-03-31T00:31:13.514Z,10.05
2017-03-31T00:32:13.526Z,10.02
2017-03-31T00:33:13.571Z,10.1
2017-03-31T00:34:13.606Z,10
2017-03-31T00:35:13.637Z,10.08
2017-03-31T00:36:13.651Z,10.11
2017-03-31T00:37:13.705Z,10.03
2017-03-31T00:38:13.738Z,10.07
2017-03-31T00:39:13.767Z,10.02
2017-03-31T00:40:13.807Z,10.15
2017-03-31T00:41:13.830Z,10.11
2017-03-31T00:42:13.861Z,10.17
2017-03-31T00:43:13.890Z,10.25
2017-03-31T00:44:13.924Z,10.25
2017-03-31T00:45:13.951Z,10.23
2017-03-31T00:46:13.975Z,10.31
2017-03-31T00:47:14.016Z,10.23
2017-03-31T00:48:14.056Z,10.25
2017-03-31T00:49:14.065Z,10.21
2017-03-31T00:50:14.105Z,10.25
2017-03-31T00:51:14.125Z,10.33
2017-03-31T00:52:14.167Z,10.33
2017-03-31T00:53:14.200Z,10.35
2017-03-31T00:54:14.244Z,10.29
2017-03-31T00:55:14.247Z,10.25
2017-03-31T00:56:14.288Z,10.28
2017-03-31T00:57:14.329Z,10.25
2017-03-31T00:58:14.357Z,10.23
2017-03-31T00:59:14.377Z,10.33
2017-03-31T01:00:14.424Z,10.31
2017-03-31T01:01:14.460Z,10.29
2017-03-31T01:02:14.489Z,10.26
2017-03-31T01:03:14.523Z,10.35
2017-03-31T01:04:14.547Z,10.26
2017-03-31T01:05:14.573Z,10.28
2017-03-31T01:06:14.608Z,10.26
2017-03-31T01:07:14.643Z,10.28
2017-03-31T01:08:14.677Z,10.18
2017-03-31T01:09:14.707Z,10.29
2017-03-31T01:10:14.738Z,10.29
2017-03-31T01:11:14.754Z,10.28
2017-03-31T01:12:14.778Z,10.28
2017-03-31T01:13:14.838Z,10.23
2017-03-31T01:14:14.862Z,10.26
2017-03-31T01:15:14.889Z,10.28
2017-03-31T01:16:14.902Z,10.35
2017-03-31T01:17:14.947Z,10.35
2017-03-31T01:18:14.979Z,10.23
2017-03-31T01:19:15.029Z,10.23
2017-03-31T01:20:15.047Z,10.31
2017-03-31T01:21:15.090Z,10.31
2017-03-31T01:22:15.076Z,10.29
2017-03-31T01:23:15.140Z,10.29
2017-03-31T01:24:15.158Z,10.29
2017-03-31T01:25:15.201Z,10.28
2017-03-31T01:26:15.239Z,10.26
2017-03-31T01:27:15.268Z,10.26
2017-03-31T01:28:15.276Z,10.21
2017-03-31T01:29:15.326Z,10.18
2017-03-31T01:30:15.358Z,10.2
2017-03-31T01:31:15.368Z,10.2
2017-03-31T01:32:15.417Z,10.17
2017-03-31T01:33:15.452Z,10.2
2017-03-31T01:34:15.470Z,10.21
2017-03-31T01:35:15.466Z,10.18
2017-03-31T01:36:15.551Z,10.28
2017-03-31T01:37:15.585Z,10.21
2017-03-31T01:38:15.616Z,10.18
2017-03-31T01:39:15.638Z,10.14
2017-03-31T01:40:15.673Z,10.18
2017-03-31T01:41:15.690Z,10.11
2017-03-31T01:42:15.727Z,10.05
2017-03-31T01:43:15.755Z,10.07
2017-03-31T01:44:15.792Z,10.07
2017-03-31T01:45:15.791Z,10.1
2017-03-31T01:46:15.874Z,9.99
2017-03-31T01:47:15.847Z,10.08
2017-03-31T01:48:15.899Z,10.05
2017-03-31T01:49:15.943Z,9.95
2017-03-31T01:50:15.979Z,10
2017-03-31T01:51:15.976Z,9.92
2017-03-31T01:52:16.039Z,9.96
2017-03-31T01:53:16.053Z,9.95
2017-03-31T01:54:16.102Z,9.93
2017-03-31T01:55:16.119Z,9.9
2017-03-31T01:56:16.165Z,9.88
2017-03-31T01:57:16.204Z,9.81
2017-03-31T01:58:16.207Z,9.9
2017-03-31T01:59:16.236Z,9.88
2017-03-31T02:00:16.295Z,9.85
2017-03-31T02:01:16.312Z,9.85
2017-03-31T02:02:16.333Z,9.8
2017-03-31T02:03:16.413Z,9.8
2017-03-31T02:04:16.371Z,9.72
2017-03-31T02:05:16.447Z,9.72
2017-03-31T02:06:16.670Z,9.75
2017-03-31T02:07:16.511Z,9.74
2017-03-31T02:08:16.487Z,9.7
2017-03-31T02:09:16.571Z,9.72
2017-03-31T02:10:16.578Z,9.74
2017-03-31T02:11:16.621Z,9.8
2017-03-31T02:12:16.656Z,9.77
2017-03-31T02:13:16.687Z,9.75
2017-03-31T02:14:16.700Z,9.8
2017-03-31T02:15:16.730Z,9.72
2017-03-31T02:16:16.785Z,9.59
2017-03-31T02:17:16.818Z,9.62
2017-03-31T02:18:16.839Z,9.53
2017-03-31T02:19:16.869Z,9.5
2017-03-31T02:20:16.904Z,9.53
2017-03-31T02:21:16.890Z,9.55
2017-03-31T02:22:16.962Z,9.48
2017-03-31T02:23:16.978Z,9.48
2017-03-31T02:24:17.012Z,9.5
2017-03-31T02:25:17.049Z,9.41
2017-03-31T02:26:17.080Z,9.52
2017-03-31T02:27:17.121Z,9.44
2017-03-31T02:28:17.127Z,9.48
2017-03-31T02:29:17.176Z,9.48
2017-03-31T02:30:17.207Z,9.48
2017-03-31T02:31:17.231Z,9.45
2017-03-31T02:32:17.270Z,9.48
2017-03-31T02:33:17.297Z,9.41
2017-03-31T02:34:17.333Z,9.44
2017-03-31T02:35:17.367Z,9.44
2017-03-31T02:36:17.387Z,9.35
2017-03-31T02:37:17.408Z,9.41
2017-03-31T02:38:17.427Z,9.35
2017-03-31T02:39:17.489Z,9.37
2017-03-31T02:40:17.500Z,9.26
2017-03-31T02:41:17.547Z,9.37
2017-03-31T02:42:17.565Z,9.34
2017-03-31T02:43:17.601Z,9.35
2017-03-31T02:44:17.638Z,9.32
2017-03-31T02:45:17.661Z,9.27
2017-03-31T02:46:17.696Z,9.27
2017-03-31T02:47:17.706Z,9.3
2017-03-31T02:48:17.755Z,9.32
2017-03-31T02:49:17.788Z,9.3
2017-03-31T02:50:17.819Z,9.29
2017-03-31T02:51:17.854Z,9.34
2017-03-31T02:52:17.888Z,9.3
2017-03-31T02:53:17.910Z,9.24
2017-03-31T02:54:17.944Z,9.26
2017-03-31T02:55:17.950Z,9.2
2017-03-31T02:56:17.983Z,9.27
2017-03-31T02:57:18.038Z,9.26
2017-03-31T02:58:18.067Z,9.21
2017-03-31T02:59:18.085Z,9.14
2017-03-31T03:00:18.129Z,9.14
2017-03-31T03:01:18.166Z,9.12
2017-03-31T03:02:18.188Z,9.19
2017-03-31T03:03:18.231Z,9.17
2017-03-31T03:04:18.240Z,9.19
2017-03-31T03:05:18.270Z,9.14
2017-03-31T03:06:18.287Z,9.12
2017-03-31T03:07:18.332Z,9.12
2017-03-31T03:08:18.341Z,9.09
2017-03-31T03:09:18.370Z,9.21
2017-03-31T03:10:18.425Z,9.08
2017-03-31T03:11:18.453Z,9.12
2017-03-31T03:12:18.469Z,9.14
2017-03-31T03:13:18.522Z,8.98
2017-03-31T03:14:18.528Z,9
2017-03-31T03:15:18.577Z,9.03
2017-03-31T03:16:18.606Z,9
2017-03-31T03:17:18.628Z,8.95
2017-03-31T03:18:18.649Z,8.98
2017-03-31T03:19:18.679Z,9.03
2017-03-31T03:20:18.730Z,9.05
2017-03-31T03:21:18.765Z,9
2017-03-31T03:22:18.790Z,9.01
2017-03-31T03:23:18.800Z,8.98
2017-03-31T03:24:18.841Z,8.98
2017-03-31T03:25:18.880Z,8.97
2017-03-31T03:26:18.899Z,9.01
2017-03-31T03:27:18.936Z,8.94
2017-03-31T03:28:18.966Z,9.01
2017-03-31T03:29:19.018Z,9
2017-03-31T03:30:19.018Z,8.89
2017-03-31T03:31:19.067Z,8.95
2017-03-31T03:32:19.085Z,8.89
2017-03-31T03:33:19.098Z,8.9
2017-03-31T03:34:19.150Z,8.85
2017-03-31T03:35:19.186Z,8.85
2017-03-31T03:36:19.200Z,8.82
2017-03-31T03:37:19.265Z,8.87
2017-03-31T03:38:19.275Z,8.9
2017-03-31T03:39:19.284Z,8.89
2017-03-31T03:40:19.332Z,8.8
2017-03-31T03:41:19.364Z,8.85
2017-03-31T03:42:19.390Z,8.85
2017-03-31T03:43:19.417Z,8.83
2017-03-31T03:44:19.478Z,8.87
2017-03-31T03:45:19.483Z,8.89
2017-03-31T03:46:19.496Z,8.87
2017-03-31T03:47:19.564Z,8.89
2017-03-31T03:48:19.567Z,8.82
2017-03-31T03:49:19.565Z,8.83
2017-03-31T03:50:19.626Z,8.82
2017-03-31T03:51:19.661Z,8.83
2017-03-31T03:52:19.666Z,8.8
2017-03-31T03:53:19.702Z,8.74
2017-03-31T03:54:19.754Z,8.79
2017-03-31T03:55:20.130Z,8.74
2017-03-31T03:56:19.797Z,8.69
2017-03-31T03:57:19.844Z,8.77
2017-03-31T03:58:19.867Z,8.71
2017-03-31T03:59:19.878Z,8.65
2017-03-31T04:00:20.092Z,8.74
2017-03-31T04:01:20.020Z,8.74
2017-03-31T04:02:20.011Z,8.77
2017-03-31T04:03:20.041Z,8.71
2017-03-31T04:04:20.099Z,8.65
2017-03-31T04:05:20.198Z,8.62
2017-03-31T04:06:20.137Z,8.61
2017-03-31T04:07:20.154Z,8.58
2017-03-31T04:08:20.225Z,8.54
2017-03-31T04:09:20.256Z,8.49
2017-03-31T04:10:20.260Z,8.54
2017-03-31T04:11:20.281Z,8.53
2017-03-31T04:12:20.292Z,8.54
2017-03-31T04:13:20.337Z,8.49
2017-03-31T04:14:20.415Z,8.57
2017-03-31T04:15:20.421Z,8.54
2017-03-31T04:16:20.426Z,8.53
2017-03-31T04:17:20.478Z,8.57
2017-03-31T04:18:20.500Z,8.64
2017-03-31T04:19:20.502Z,8.6
2017-03-31T04:20:20.539Z,8.53
2017-03-31T04:21:20.577Z,8.54
2017-03-31T04:22:20.603Z,8.58
2017-03-31T04:23:20.631Z,8.57
2017-03-31T04:24:20.699Z,8.49
2017-03-31T04:25:20.721Z,8.52
2017-03-31T04:26:20.730Z,8.44
2017-03-31T04:27:20.746Z,8.57
2017-03-31T04:28:20.778Z,8.52
2017-03-31T04:29:20.808Z,8.62
2017-03-31T04:30:20.843Z,8.57
2017-03-31T04:31:20.920Z,8.49
2017-03-31T04:32:20.902Z,8.5
2017-03-31T04:33:20.987Z,8.42
2017-03-31T04:34:20.977Z,8.47
2017-03-31T04:35:21.020Z,8.42
2017-03-31T04:36:21.033Z,8.49
2017-03-31T04:37:21.086Z,8.53
2017-03-31T04:38:21.120Z,8.47
2017-03-31T04:39:21.127Z,8.52
2017-03-31T04:40:21.143Z,8.53
2017-03-31T04:41:21.173Z,8.53
2017-03-31T04:42:21.192Z,8.52
2017-03-31T04:43:21.233Z,8.47
2017-03-31T04:44:21.289Z,8.53
2017-03-31T04:45:21.292Z,8.49
2017-03-31T04:46:21.347Z,8.52
2017-03-31T04:47:21.391Z,8.49
2017-03-31T04:48:21.449Z,8.53
2017-03-31T04:49:21.416Z,8.47
2017-03-31T04:50:21.605Z,8.49
2017-03-31T04:51:21.545Z,8.5
2017-03-31T04:52:21.531Z,8.53
2017-03-31T04:53:21.559Z,8.5
2017-03-31T04:54:21.561Z,8.49
2017-03-31T04:55:21.732Z,8.5
2017-03-31T04:56:21.609Z,8.54
2017-03-31T04:57:21.657Z,8.58
2017-03-31T04:58:21.693Z,8.5
2017-03-31T04:59:21.693Z,8.53
2017-03-31T05:00:29.274Z,8.58
2017-03-31T05:01:21.769Z,8.53
2017-03-31T05:02:21.804Z,8.57
2017-03-31T05:03:21.823Z,8.62
2017-03-31T05:04:21.950Z,8.65
2017-03-31T05:05:22.013Z,8.65
2017-03-31T05:06:22.028Z,8.65
2017-03-31T05:07:21.951Z,8.6
2017-03-31T05:08:22.005Z,8.62
2017-03-31T05:09:22.009Z,8.74
2017-03-31T05:10:22.054Z,8.72
2017-03-31T05:11:22.072Z,8.72
2017-03-31T05:12:22.099Z,8.76
2017-03-31T05:13:22.169Z,8.72
2017-03-31T05:14:22.194Z,8.86
2017-03-31T05:15:22.204Z,8.83
2017-03-31T05:16:22.215Z,8.85
2017-03-31T05:17:22.294Z,8.89
2017-03-31T05:18:22.292Z,8.89
2017-03-31T05:19:22.332Z,9.01
2017-03-31T05:20:22.344Z,9.04
2017-03-31T05:21:22.409Z,8.97
2017-03-31T05:22:22.411Z,9.04
2017-03-31T05:23:22.423Z,9.11
2017-03-31T05:24:22.529Z,9.16
2017-03-31T05:25:22.488Z,9.21
2017-03-31T05:26:22.543Z,9.12
2017-03-31T05:27:22.595Z,9.19
2017-03-31T05:28:22.598Z,9.23
2017-03-31T05:29:22.601Z,9.32
2017-03-31T05:30:22.657Z,9.3
2017-03-31T05:31:22.988Z,9.38
2017-03-31T05:32:22.928Z,9.41
2017-03-31T05:33:22.761Z,9.48
2017-03-31T05:34:22.818Z,9.45
2017-03-31T05:35:22.816Z,9.53
2017-03-31T05:36:22.996Z,9.53
2017-03-31T05:37:22.861Z,9.66
2017-03-31T05:38:22.916Z,9.75
2017-03-31T05:39:22.913Z,9.78
2017-03-31T05:40:22.962Z,9.75
2017-03-31T05:41:22.986Z,9.81
2017-03-31T05:42:23.008Z,9.82
2017-03-31T05:43:23.100Z,9.84
2017-03-31T05:44:23.063Z,9.92
2017-03-31T05:45:23.130Z,10.05
2017-03-31T05:46:23.212Z,10.1
2017-03-31T05:47:23.231Z,10.2
2017-03-31T05:48:23.227Z,10.31
2017-03-31T05:49:23.409Z,10.57
2017-03-31T05:50:23.266Z,10.65
2017-03-31T05:51:23.327Z,10.84
2017-03-31T05:52:23.310Z,11
2017-03-31T05:53:23.759Z,11.16
2017-03-31T05:54:23.534Z,11.24
2017-03-31T05:55:23.445Z,11.33
2017-03-31T05:56:23.574Z,11.48
2017-03-31T05:57:23.523Z,11.61
2017-03-31T05:58:23.531Z,11.78
2017-03-31T05:59:23.708Z,11.71
2017-03-31T06:00:32.494Z,11.98
2017-03-31T06:01:23.730Z,12.05
2017-03-31T06:02:23.822Z,12.48
2017-03-31T06:03:23.831Z,12.66
2017-03-31T06:04:23.959Z,12.88
2017-03-31T06:05:23.877Z,13.03
2017-03-31T06:06:23.933Z,13.31
2017-03-31T06:07:23.913Z,13.5
2017-03-31T06:08:23.965Z,13.66
2017-03-31T06:09:24.019Z,13.57
2017-03-31T06:10:24.005Z,13.76
2017-03-31T06:11:24.053Z,13.68
2017-03-31T06:12:24.117Z,13.69
2017-03-31T06:13:24.124Z,13.83
2017-03-31T06:14:24.136Z,13.93
2017-03-31T06:15:24.175Z,14.09
2017-03-31T06:16:24.212Z,14.19
2017-03-31T06:17:24.251Z,14.15
2017-03-31T06:18:24.303Z,13.95
2017-03-31T06:19:24.312Z,13.94
2017-03-31T06:20:24.384Z,13.93
2017-03-31T06:21:24.383Z,13.95
2017-03-31T06:22:24.441Z,13.9
2017-03-31T06:23:24.451Z,13.73
2017-03-31T06:24:24.527Z,13.57
2017-03-31T06:25:24.514Z,13.69
2017-03-31T06:26:24.564Z,14.21
2017-03-31T06:27:24.576Z,14.9
2017-03-31T06:28:24.640Z,15.59
2017-03-31T06:29:24.658Z,16.26
2017-03-31T06:30:25.005Z,16.99
2017-03-31T06:31:24.825Z,17.49
2017-03-31T06:32:24.812Z,18.08
2017-03-31T06:33:24.772Z,18.57
2017-03-31T06:34:24.810Z,18.86
2017-03-31T06:35:24.964Z,19.24
2017-03-31T06:36:24.903Z,19.52
2017-03-31T06:37:24.947Z,19.85
2017-03-31T06:38:24.926Z,20.2
2017-03-31T06:39:24.978Z,20.58
2017-03-31T06:40:25.117Z,20.96
2017-03-31T06:41:25.072Z,21.22
2017-03-31T06:42:25.144Z,21.34
2017-03-31T06:43:25.159Z,21.59
2017-03-31T06:44:25.145Z,21.59
2017-03-31T06:45:25.583Z,21.62
2017-03-31T06:46:25.225Z,21.76
2017-03-31T06:47:25.297Z,21.8
2017-03-31T06:48:25.333Z,21.92
2017-03-31T06:49:25.324Z,22.04
2017-03-31T06:50:25.381Z,22.02
2017-03-31T06:51:25.421Z,22.07
2017-03-31T06:52:25.426Z,22.23
2017-03-31T06:53:25.479Z,22.41
2017-03-31T06:54:25.536Z,22.46
2017-03-31T06:55:25.557Z,22.54
2017-03-31T06:56:25.578Z,22.59
2017-03-31T06:57:25.669Z,22.55
2017-03-31T06:58:25.650Z,22.66
2017-03-31T06:59:25.695Z,22.81
2017-03-31T07:00:25.737Z,22.85
2017-03-31T07:01:25.793Z,22.92
2017-03-31T07:02:25.862Z,22.99
2017-03-31T07:03:25.844Z,23.07
2017-03-31T07:04:25.952Z,23.26
2017-03-31T07:05:25.906Z,23.26
2017-03-31T07:06:25.973Z,23.22
2017-03-31T07:07:26.026Z,23.22
2017-03-31T07:08:26.082Z,23.28
2017-03-31T07:09:26.106Z,23.45
2017-03-31T07:10:26.099Z,23.59
2017-03-31T07:11:26.167Z,23.78
2017-03-31T07:12:26.170Z,24.19
2017-03-31T07:13:26.262Z,24.39
2017-03-31T07:14:26.278Z,24.44
2017-03-31T07:15:26.397Z,24.54
2017-03-31T07:16:26.321Z,24.66
2017-03-31T07:17:26.388Z,24.78
2017-03-31T07:18:26.407Z,24.89
2017-03-31T07:19:26.443Z,25
2017-03-31T07:20:26.489Z,25.2
2017-03-31T07:21:26.549Z,25.11
2017-03-31T07:22:26.607Z,24.86
2017-03-31T07:23:26.589Z,24.92
2017-03-31T07:24:26.640Z,25.11
2017-03-31T07:25:26.754Z,25.33
2017-03-31T07:26:26.697Z,25.64
2017-03-31T07:27:26.753Z,25.76
2017-03-31T07:28:26.801Z,25.86
2017-03-31T07:29:26.885Z,26.12
2017-03-31T07:30:26.875Z,26.47
2017-03-31T07:31:26.949Z,26.5
2017-03-31T07:32:26.937Z,26.69
2017-03-31T07:33:27.011Z,26.97
2017-03-31T07:34:27.052Z,27.13
2017-03-31T07:35:27.050Z,27.49
2017-03-31T07:36:27.407Z,27.83
2017-03-31T07:37:27.151Z,28.26
2017-03-31T07:38:27.181Z,28.05
2017-03-31T07:39:27.248Z,27.55
2017-03-31T07:40:27.256Z,27.83
2017-03-31T07:41:27.460Z,27.66
2017-03-31T07:42:27.374Z,27.93
2017-03-31T07:43:27.476Z,28.27
2017-03-31T07:44:27.424Z,28.42
2017-03-31T07:45:27.478Z,28.64
2017-03-31T07:46:27.824Z,28.64
2017-03-31T07:47:27.559Z,28.45
2017-03-31T07:48:27.583Z,28.51
2017-03-31T07:49:27.632Z,28.51
2017-03-31T07:50:27.663Z,28.45
2017-03-31T07:51:27.788Z,28.33
2017-03-31T07:52:27.793Z,28.26
2017-03-31T07:53:27.792Z,27.86
2017-03-31T07:54:27.846Z,27.8
2017-03-31T07:55:27.863Z,27.61
2017-03-31T07:56:27.910Z,27.71
2017-03-31T07:57:27.989Z,27.76
2017-03-31T07:58:28.006Z,27.91
2017-03-31T07:59:28.069Z,28.2
2017-03-31T08:00:28.118Z,28.36
2017-03-31T08:01:28.132Z,28.42
2017-03-31T08:02:28.164Z,28.41
2017-03-31T08:03:28.209Z,28.49
2017-03-31T08:04:28.273Z,28.54
2017-03-31T08:05:28.293Z,28.55
2017-03-31T08:06:28.372Z,28.36
2017-03-31T08:07:28.395Z,28.05
2017-03-31T08:08:28.448Z,27.45
2017-03-31T08:09:28.493Z,27.3
2017-03-31T08:10:28.510Z,27.13
2017-03-31T08:11:28.570Z,26.81
2017-03-31T08:12:28.624Z,26.76
2017-03-31T08:13:28.665Z,26.68
2017-03-31T08:14:28.672Z,26.82
2017-03-31T08:15:28.720Z,27.04
2017-03-31T08:16:28.786Z,27.12
2017-03-31T08:17:29.028Z,27.31
2017-03-31T08:18:28.849Z,27.46
2017-03-31T08:19:28.878Z,27.61
2017-03-31T08:20:28.973Z,27.61
2017-03-31T08:21:28.966Z,27.51
2017-03-31T08:22:29.006Z,27.74
2017-03-31T08:23:29.091Z,28.17
2017-03-31T08:24:29.119Z,28.35
2017-03-31T08:25:29.128Z,28.31
2017-03-31T08:26:29.177Z,28.17
2017-03-31T08:27:29.262Z,27.91
2017-03-31T08:28:29.275Z,27.76
2017-03-31T08:29:29.325Z,28.09
2017-03-31T08:30:29.401Z,28.39
2017-03-31T08:31:29.826Z,28.79
2017-03-31T08:32:29.446Z,28.6
2017-03-31T08:33:29.525Z,28.7
2017-03-31T08:34:29.527Z,28.75
2017-03-31T08:35:29.576Z,28.53
2017-03-31T08:36:29.621Z,28.39
2017-03-31T08:37:29.674Z,28.12
2017-03-31T08:38:29.726Z,27.94
2017-03-31T08:39:29.728Z,27.84
2017-03-31T08:40:29.782Z,28.05
2017-03-31T08:41:29.870Z,28.33
2017-03-31T08:42:29.871Z,28.54
2017-03-31T08:43:29.920Z,28.53
2017-03-31T08:44:29.976Z,28.78
2017-03-31T08:45:30.018Z,29.06
2017-03-31T08:46:30.089Z,29.17
2017-03-31T08:47:30.086Z,29.65
2017-03-31T08:48:30.149Z,30.28
2017-03-31T08:49:30.176Z,30.67
2017-03-31T08:50:30.218Z,30.91
2017-03-31T08:51:30.248Z,30.66
2017-03-31T08:52:30.304Z,30.24
2017-03-31T08:53:30.348Z,30.16
2017-03-31T08:54:30.383Z,30.22
2017-03-31T08:55:30.489Z,30.26
2017-03-31T08:56:30.477Z,30.24
2017-03-31T08:57:30.538Z,29.57
2017-03-31T08:58:30.648Z,29.58
2017-03-31T08:59:30.668Z,29.66
2017-03-31T09:00:30.782Z,29.58
2017-03-31T09:01:30.713Z,29.65
2017-03-31T09:02:30.844Z,29.67
2017-03-31T09:03:30.814Z,29.89
2017-03-31T09:04:30.862Z,29.92
2017-03-31T09:05:30.990Z,30.31
2017-03-31T09:06:30.971Z,30.66
2017-03-31T09:07:31.024Z,31
2017-03-31T09:08:31.049Z,30.85
2017-03-31T09:09:31.060Z,30.47
2017-03-31T09:10:31.222Z,29.66
2017-03-31T09:11:31.184Z,29.21
2017-03-31T09:12:31.193Z,28.75
2017-03-31T09:13:31.263Z,28.57
2017-03-31T09:14:31.306Z,28.43
2017-03-31T09:15:31.353Z,28.41
2017-03-31T09:16:31.399Z,28.33
2017-03-31T09:17:31.459Z,28.33
2017-03-31T09:18:31.470Z,28.41
2017-03-31T09:19:31.548Z,28.35
2017-03-31T09:20:31.555Z,28.45
2017-03-31T09:21:31.661Z,28.41
2017-03-31T09:22:31.645Z,28.45
2017-03-31T09:23:31.708Z,28.54
2017-03-31T09:24:31.773Z,28.53
2017-03-31T09:25:31.787Z,28.16
2017-03-31T09:26:31.866Z,28.14
2017-03-31T09:27:31.864Z,28.08
2017-03-31T09:28:31.949Z,28.02
2017-03-31T09:29:32.015Z,27.96
2017-03-31T09:30:32.056Z,28.11
2017-03-31T09:31:32.067Z,28.2
2017-03-31T09:32:32.104Z,28.42
2017-03-31T09:33:32.157Z,28.51
2017-03-31T09:34:32.217Z,28.18
2017-03-31T09:35:32.266Z,28.16
2017-03-31T09:36:32.265Z,28.02
2017-03-31T09:37:32.353Z,27.87
2017-03-31T09:38:32.387Z,27.93
2017-03-31T09:39:32.499Z,28.3
2017-03-31T09:40:32.482Z,28.78
2017-03-31T09:41:32.568Z,29.03
2017-03-31T09:42:32.594Z,29.63
2017-03-31T09:43:32.596Z,29.98
2017-03-31T09:44:32.671Z,30.32
2017-03-31T09:45:32.721Z,30.26
2017-03-31T09:46:33.029Z,30.32
2017-03-31T09:47:32.763Z,30.47
2017-03-31T09:48:33.234Z,30.59
2017-03-31T09:49:32.856Z,30.71
2017-03-31T09:50:33.090Z,30.88
2017-03-31T09:51:33.373Z,31.1
2017-03-31T09:52:33.084Z,31.5
2017-03-31T09:53:33.475Z,31.74
2017-03-31T09:54:33.093Z,31.86
2017-03-31T09:55:33.131Z,31.72
2017-03-31T09:56:33.217Z,31.87
2017-03-31T09:57:33.497Z,31.81
2017-03-31T09:58:33.268Z,31.78
2017-03-31T09:59:33.364Z,31.65
2017-03-31T10:00:33.381Z,31.75
2017-03-31T10:01:33.438Z,31.4
2017-03-31T10:02:33.687Z,31.12
2017-03-31T10:03:33.507Z,31.04
2017-03-31T10:04:33.600Z,31.08
2017-03-31T10:05:33.860Z,31.01
2017-03-31T10:06:33.679Z,30.75
2017-03-31T10:07:33.747Z,30.34
2017-03-31T10:08:33.715Z,30.42
2017-03-31T10:09:33.825Z,30.63
2017-03-31T10:10:33.804Z,30.34
2017-03-31T10:11:33.895Z,30.34
2017-03-31T10:12:33.910Z,30.47
2017-03-31T10:13:33.957Z,30.64
2017-03-31T10:14:33.976Z,30.66
2017-03-31T10:15:34.058Z,30.79
2017-03-31T10:16:34.214Z,30.94
2017-03-31T10:17:34.129Z,31.04
2017-03-31T10:18:34.192Z,31.31
2017-03-31T10:19:34.257Z,31.58
2017-03-31T10:20:34.466Z,31.98
2017-03-31T10:21:34.334Z,32.43
2017-03-31T10:22:34.629Z,33.12
2017-03-31T10:23:34.408Z,33.43
2017-03-31T10:24:34.433Z,33.44
2017-03-31T10:25:34.523Z,33.41
2017-03-31T10:26:34.537Z,32.9
2017-03-31T10:27:34.586Z,32.5
2017-03-31T10:28:34.606Z,32.19
2017-03-31T10:29:34.698Z,32.13
2017-03-31T10:30:34.675Z,32.31
2017-03-31T10:31:34.727Z,32.54
2017-03-31T10:32:34.796Z,33.02
2017-03-31T10:33:34.806Z,33.68
2017-03-31T10:34:34.879Z,33.96
2017-03-31T10:35:34.933Z,34.17
2017-03-31T10:36:34.980Z,34.19
2017-03-31T10:37:35.087Z,34.14
2017-03-31T10:38:35.052Z,34.21
2017-03-31T10:39:35.127Z,34.4
2017-03-31T10:40:35.237Z,34.58
2017-03-31T10:41:35.163Z,34.43
2017-03-31T10:42:35.205Z,34.19
2017-03-31T10:43:35.315Z,33.56
2017-03-31T10:44:35.277Z,33.31
2017-03-31T10:45:35.402Z,33.48
2017-03-31T10:46:35.402Z,33.47
2017-03-31T10:47:35.447Z,33.47
2017-03-31T10:48:35.514Z,33.31
2017-03-31T10:49:35.513Z,33.01
2017-03-31T10:50:35.611Z,32.75
2017-03-31T10:51:35.577Z,32.43
2017-03-31T10:52:35.625Z,32.17
2017-03-31T10:53:35.697Z,32.16
2017-03-31T10:54:35.707Z,31.9
2017-03-31T10:55:35.738Z,32.05
2017-03-31T10:56:35.819Z,31.78
2017-03-31T10:57:35.828Z,31.91
2017-03-31T10:58:35.884Z,31.82
2017-03-31T10:59:35.937Z,31.7
2017-03-31T11:00:35.952Z,31.95
2017-03-31T11:01:36.009Z,32
2017-03-31T11:02:36.080Z,32.03
2017-03-31T11:03:36.122Z,31.59
2017-03-31T11:04:36.137Z,31.49
2017-03-31T11:05:36.174Z,31.33
2017-03-31T11:06:36.435Z,30.99
2017-03-31T11:07:36.238Z,30.84
2017-03-31T11:08:36.280Z,31.07
2017-03-31T11:09:36.333Z,31.21
2017-03-31T11:10:36.401Z,31.19
2017-03-31T11:11:49.109Z,31.04
2017-03-31T11:12:36.430Z,31.1
2017-03-31T11:13:36.525Z,31.01
2017-03-31T11:14:36.561Z,31.15
2017-03-31T11:15:36.554Z,31.08
2017-03-31T11:16:36.585Z,30.88
2017-03-31T11:17:36.622Z,30.73
2017-03-31T11:18:36.712Z,30.48
2017-03-31T11:19:36.747Z,29.79
2017-03-31T11:20:36.826Z,29.51
2017-03-31T11:21:36.856Z,29.2
2017-03-31T11:22:36.851Z,29.38
2017-03-31T11:23:36.876Z,29.3
2017-03-31T11:24:36.943Z,29.42
2017-03-31T11:25:37.221Z,28.95
2017-03-31T11:26:37.050Z,28.67
2017-03-31T11:27:37.074Z,28.49
2017-03-31T11:28:37.098Z,28.24
2017-03-31T11:29:37.139Z,28.14
2017-03-31T11:30:37.209Z,28.03
2017-03-31T11:31:37.189Z,28.06
2017-03-31T11:32:37.228Z,27.94
2017-03-31T11:33:37.295Z,27.81
2017-03-31T11:34:37.318Z,27.64
2017-03-31T11:35:37.369Z,27.37
2017-03-31T11:36:37.445Z,27.34
2017-03-31T11:37:37.446Z,27.3
2017-03-31T11:38:37.478Z,27.45
2017-03-31T11:39:37.576Z,27.59
2017-03-31T11:40:37.544Z,27.51
2017-03-31T11:41:37.603Z,27.3
2017-03-31T11:42:37.688Z,27.13
2017-03-31T11:43:37.722Z,26.82
2017-03-31T11:44:37.762Z,26.72
2017-03-31T11:45:37.781Z,26.47
2017-03-31T11:46:37.782Z,26.09
2017-03-31T11:47:37.840Z,26.03
2017-03-31T11:48:37.891Z,25.78
2017-03-31T11:49:37.919Z,25.6
2017-03-31T11:50:37.952Z,25.56
2017-03-31T11:51:38.570Z,25.52
2017-03-31T11:52:38.094Z,25.49
2017-03-31T11:53:38.137Z,25.34
2017-03-31T11:54:38.178Z,25.19
2017-03-31T11:55:38.142Z,24.86
2017-03-31T11:56:38.228Z,24.66
2017-03-31T11:57:38.293Z,24.51
2017-03-31T11:58:38.323Z,24.18
2017-03-31T11:59:38.385Z,23.92
2017-03-31T12:00:38.336Z,23.75
2017-03-31T12:01:38.366Z,23.64
2017-03-31T12:02:38.470Z,23.37
2017-03-31T12:03:38.468Z,23.25
2017-03-31T12:04:38.551Z,23.21
2017-03-31T12:05:38.577Z,23.09
2017-03-31T12:06:38.569Z,23.16
2017-03-31T12:07:38.666Z,23.04
2017-03-31T12:08:38.660Z,22.96
2017-03-31T12:09:38.732Z,22.94
2017-03-31T12:10:38.767Z,22.79
2017-03-31T12:11:38.780Z,22.66
2017-03-31T12:12:38.830Z,22.66
2017-03-31T12:13:38.874Z,22.7
2017-03-31T12:14:38.933Z,22.67
2017-03-31T12:15:38.948Z,22.61
2017-03-31T12:16:39.010Z,22.67
2017-03-31T12:17:39.117Z,22.69
2017-03-31T12:18:39.071Z,22.7
2017-03-31T12:19:39.119Z,22.66
2017-03-31T12:20:39.216Z,22.66
2017-03-31T12:21:39.171Z,22.64
2017-03-31T12:22:39.236Z,22.59
2017-03-31T12:23:39.246Z,22.61
2017-03-31T12:24:39.271Z,22.59
2017-03-31T12:25:39.411Z,22.7
2017-03-31T12:26:39.346Z,22.75
2017-03-31T12:27:39.430Z,22.85
2017-03-31T12:28:39.446Z,22.79
2017-03-31T12:29:39.546Z,22.84
2017-03-31T12:30:39.528Z,22.81
2017-03-31T12:31:39.614Z,22.84
2017-03-31T12:32:39.617Z,22.89
2017-03-31T12:33:39.641Z,22.84
2017-03-31T12:34:39.751Z,22.92
2017-03-31T12:35:39.737Z,23.07
2017-03-31T12:36:39.753Z,23.1
2017-03-31T12:37:39.828Z,23.03
2017-03-31T12:38:39.846Z,23.18
2017-03-31T12:39:39.866Z,23.21
2017-03-31T12:40:39.932Z,23.21
2017-03-31T12:41:39.958Z,23.06
2017-03-31T12:42:40.004Z,23.01
2017-03-31T12:43:40.070Z,23.01
2017-03-31T12:44:40.095Z,22.92
2017-03-31T12:45:40.140Z,22.97
2017-03-31T12:46:40.184Z,22.86
2017-03-31T12:47:40.189Z,22.89
2017-03-31T12:48:40.264Z,22.97
2017-03-31T12:49:40.333Z,22.96
2017-03-31T12:50:40.356Z,22.92
2017-03-31T12:51:40.576Z,23.01
2017-03-31T12:52:40.361Z,22.99
2017-03-31T12:53:40.458Z,23.07
2017-03-31T12:54:40.464Z,23.18
2017-03-31T12:55:40.523Z,23.16
2017-03-31T12:56:40.543Z,23.18
2017-03-31T12:57:40.585Z,23.04
2017-03-31T12:58:40.670Z,23.04
2017-03-31T12:59:40.662Z,23.06
2017-03-31T13:00:41.075Z,23.1
2017-03-31T13:01:43.752Z,23.21
2017-03-31T13:02:40.768Z,23.18
2017-03-31T13:03:40.834Z,23.15